createdAt,value
2023-03-30T00:01:12.221Z,11.43
2023-03-30T00:03:41.292Z,6.65
2023-03-30T00:06:09.149Z,7.10
2023-03-30T00:08:36.256Z,6.43
2023-03-30T00:11:05.700Z,7.90
2023-03-30T00:13:34.376Z,6.88
2023-03-30T00:16:01.688Z,11.93
2023-03-30T00:18:30.106Z,5.70
2023-03-30T00:20:58.589Z,7.32
2023-03-30T00:23:25.647Z,9.95
2023-03-30T00:25:52.398Z,10.38
2023-03-30T00:28:19.090Z,13.30
2023-03-30T00:30:47.179Z,9.63
2023-03-30T00:33:14.120Z,10.00
2023-03-30T00:35:40.911Z,12.10
2023-03-30T00:38:07.645Z,9.98
2023-03-30T00:40:34.869Z,10.10
2023-03-30T00:43:03.336Z,8.55
2023-03-30T00:45:31.383Z,7.95
2023-03-30T00:48:10.135Z,10.27
2023-03-30T00:50:38.935Z,5.82
2023-03-30T00:53:10.080Z,9.63
2023-03-30T00:55:38.482Z,10.13
2023-03-30T00:58:06.795Z,6.53
2023-03-30T01:00:34.368Z,11.32
2023-03-30T01:03:03.384Z,6.97
2023-03-30T01:05:30.295Z,9.70
2023-03-30T01:07:58.205Z,7.95
2023-03-30T01:10:25.064Z,11.25
2023-03-30T01:12:51.802Z,12.55
2023-03-30T01:15:18.794Z,8.63
2023-03-30T01:17:58.167Z,9.32
2023-03-30T01:20:46.271Z,11.73
2023-03-30T01:23:52.635Z,6.97
2023-03-30T01:26:20.643Z,12.98
2023-03-30T01:29:06.698Z,11.88
2023-03-30T01:32:02.190Z,17.45
2023-03-30T01:34:35.079Z,8.40
2023-03-30T01:37:04.818Z,10.27
2023-03-30T01:39:47.301Z,8.48
2023-03-30T01:42:24.886Z,8.77
2023-03-30T01:44:51.593Z,7.43
2023-03-30T01:47:20.030Z,9.65
2023-03-30T01:49:53.216Z,9.98
2023-03-30T01:52:28.922Z,10.05
2023-03-30T01:55:00.390Z,13.30
2023-03-30T01:57:36.601Z,11.32
2023-03-30T02:00:14.383Z,10.70
2023-03-30T02:02:46.557Z,8.95
2023-03-30T02:05:15.938Z,11.68
2023-03-30T02:07:42.613Z,14.85
2023-03-30T02:10:09.859Z,9.85
2023-03-30T02:12:40.344Z,7.55
2023-03-30T02:15:09.242Z,14.02
2023-03-30T02:17:38.198Z,8.25
2023-03-30T02:20:08.506Z,14.23
2023-03-30T02:22:35.208Z,15.52
2023-03-30T02:25:03.040Z,14.55
2023-03-30T02:27:29.919Z,8.13
2023-03-30T02:29:56.774Z,12.85
2023-03-30T02:32:25.951Z,10.27
2023-03-30T02:35:11.515Z,12.10
2023-03-30T02:37:47.228Z,13.60
2023-03-30T02:40:38.925Z,9.35
2023-03-30T02:43:33.206Z,13.48
2023-03-30T02:46:09.695Z,15.52
2023-03-30T02:49:02.007Z,13.98
2023-03-30T02:51:28.671Z,8.75
2023-03-30T02:54:06.354Z,9.43
2023-03-30T02:56:37.851Z,11.15
2023-03-30T02:59:08.792Z,11.00
2023-03-30T03:02:15.386Z,7.60
2023-03-30T03:04:43.694Z,12.65
2023-03-30T03:07:12.230Z,16.98
2023-03-30T03:09:39.018Z,9.02
2023-03-30T03:12:06.118Z,14.13
2023-03-30T03:14:33.003Z,13.23
2023-03-30T03:16:59.690Z,10.80
2023-03-30T03:19:26.639Z,12.07
2023-03-30T03:21:53.312Z,15.18
2023-03-30T03:24:20.039Z,12.23
2023-03-30T03:26:46.725Z,12.48
2023-03-30T03:29:13.698Z,14.63
2023-03-30T03:31:40.372Z,9.30
2023-03-30T03:34:07.308Z,15.40
2023-03-30T03:36:34.058Z,10.73
2023-03-30T03:39:00.832Z,12.35
2023-03-30T03:41:27.516Z,12.88
2023-03-30T03:43:54.195Z,9.65
2023-03-30T03:46:21.044Z,16.95
2023-03-30T03:48:47.754Z,11.52
2023-03-30T03:51:14.596Z,9.48
2023-03-30T03:53:41.632Z,11.13
2023-03-30T03:56:08.670Z,11.35
2023-03-30T03:58:35.520Z,8.20
2023-03-30T04:01:03.351Z,15.18
2023-03-30T04:03:30.750Z,10.88
2023-03-30T04:06:02.311Z,11.82
2023-03-30T04:08:29.188Z,13.52
2023-03-30T04:10:56.269Z,10.18
2023-03-30T04:13:22.939Z,12.38
2023-03-30T04:15:49.711Z,11.38
2023-03-30T04:18:16.379Z,14.95
2023-03-30T04:20:43.089Z,16.85
2023-03-30T04:23:10.024Z,10.10
2023-03-30T04:25:36.766Z,12.98
2023-03-30T04:28:05.283Z,12.65
2023-03-30T04:30:33.004Z,12.63
2023-03-30T04:33:05.649Z,12.70
2023-03-30T04:35:33.101Z,10.82
2023-03-30T04:38:00.568Z,13.32
2023-03-30T04:40:27.701Z,12.27
2023-03-30T04:42:54.734Z,11.60
2023-03-30T04:45:21.555Z,11.48
2023-03-30T04:47:48.303Z,19.65
2023-03-30T04:50:15.414Z,11.52
2023-03-30T04:52:42.099Z,16.80
2023-03-30T04:55:10.133Z,9.30
2023-03-30T04:57:36.983Z,10.23
2023-03-30T05:00:09.508Z,16.17
2023-03-30T05:02:36.626Z,18.48
2023-03-30T05:05:03.668Z,16.15
2023-03-30T05:07:30.700Z,13.48
2023-03-30T05:09:57.584Z,11.80
2023-03-30T05:12:24.417Z,18.27
2023-03-30T05:14:51.383Z,14.98
2023-03-30T05:17:18.195Z,13.05
2023-03-30T05:19:44.985Z,16.70
2023-03-30T05:22:11.777Z,12.05
2023-03-30T05:24:38.743Z,8.77
2023-03-30T05:27:06.934Z,15.25
2023-03-30T05:29:33.967Z,10.77
2023-03-30T05:32:00.754Z,16.98
2023-03-30T05:34:28.851Z,16.75
2023-03-30T05:36:55.758Z,14.13
2023-03-30T05:39:23.453Z,12.38
2023-03-30T05:41:50.495Z,10.90
2023-03-30T05:44:20.586Z,16.90
2023-03-30T05:46:48.647Z,12.10
2023-03-30T05:49:15.509Z,12.80
2023-03-30T05:51:42.247Z,14.75
2023-03-30T05:54:14.156Z,13.13
2023-03-30T05:56:42.450Z,15.00
2023-03-30T05:59:10.406Z,16.95
2023-03-30T06:01:37.809Z,11.15
2023-03-30T06:04:04.938Z,8.68
2023-03-30T06:06:32.396Z,11.20
2023-03-30T06:08:59.266Z,15.90
2023-03-30T06:11:25.958Z,13.43
2023-03-30T06:13:52.679Z,13.25
2023-03-30T06:16:19.506Z,21.42
2023-03-30T06:18:46.179Z,13.25
2023-03-30T06:21:12.865Z,13.95
2023-03-30T06:23:41.303Z,14.77
2023-03-30T06:26:08.070Z,9.50
2023-03-30T06:28:34.868Z,18.73
2023-03-30T06:31:03.321Z,13.02
2023-03-30T06:33:30.514Z,12.30
2023-03-30T06:35:57.345Z,14.60
2023-03-30T06:38:24.303Z,13.95
2023-03-30T06:40:51.520Z,13.57
2023-03-30T06:43:25.544Z,11.55
2023-03-30T06:45:53.673Z,16.42
2023-03-30T06:48:23.955Z,17.67
2023-03-30T06:50:54.666Z,16.60
2023-03-30T06:53:22.629Z,18.58
2023-03-30T06:55:56.972Z,18.77
2023-03-30T06:58:24.474Z,17.25
2023-03-30T07:00:51.362Z,14.13
2023-03-30T07:03:19.095Z,13.57
2023-03-30T07:05:52.634Z,14.52
2023-03-30T07:08:20.248Z,15.27
2023-03-30T07:10:48.121Z,16.77
2023-03-30T07:13:16.852Z,15.13
2023-03-30T07:15:44.669Z,13.60
2023-03-30T07:18:11.920Z,15.98
2023-03-30T07:20:38.830Z,9.25
2023-03-30T07:23:05.628Z,19.17
2023-03-30T07:25:32.755Z,11.52
2023-03-30T07:27:59.503Z,15.10
2023-03-30T07:30:26.393Z,11.25
2023-03-30T07:32:54.338Z,13.63
2023-03-30T07:35:22.309Z,14.85
2023-03-30T07:37:51.007Z,14.70
2023-03-30T07:40:18.931Z,15.18
2023-03-30T07:42:45.908Z,16.63
2023-03-30T07:45:15.609Z,10.55
2023-03-30T07:47:43.030Z,11.27
2023-03-30T07:50:10.310Z,15.27
2023-03-30T07:52:37.965Z,13.25
2023-03-30T07:55:05.091Z,14.63
2023-03-30T07:57:32.268Z,19.65
2023-03-30T07:59:59.191Z,16.58
2023-03-30T08:02:26.270Z,12.38
2023-03-30T08:04:53.511Z,8.52
2023-03-30T08:07:20.322Z,13.52
2023-03-30T08:09:47.451Z,14.40
2023-03-30T08:12:14.131Z,18.48
2023-03-30T08:14:40.801Z,10.80
2023-03-30T08:17:07.759Z,12.00
2023-03-30T08:19:34.739Z,11.75
2023-03-30T08:22:02.298Z,18.73
2023-03-30T08:24:29.286Z,25.85
2023-03-30T08:26:56.238Z,10.02
2023-03-30T08:29:23.025Z,13.40
2023-03-30T08:31:51.374Z,10.57
2023-03-30T08:34:18.303Z,17.63
2023-03-30T08:36:45.073Z,10.27
2023-03-30T08:39:11.788Z,13.07
2023-03-30T08:41:48.270Z,7.63
2023-03-30T08:44:37.764Z,9.65
2023-03-30T08:47:06.531Z,9.18
2023-03-30T08:49:36.232Z,8.65
2023-03-30T08:52:04.015Z,12.88
2023-03-30T08:54:30.795Z,9.55
2023-03-30T08:57:00.823Z,10.57
2023-03-30T08:59:35.863Z,10.25
2023-03-30T09:02:23.782Z,8.18
2023-03-30T09:05:27.706Z,14.50
2023-03-30T09:08:00.517Z,7.63
2023-03-30T09:10:28.789Z,8.05
2023-03-30T09:12:57.817Z,12.68
2023-03-30T09:15:39.550Z,12.43
2023-03-30T09:18:19.921Z,10.13
2023-03-30T09:20:47.818Z,10.65
2023-03-30T09:23:16.790Z,12.18
2023-03-30T09:25:49.378Z,9.27
2023-03-30T09:28:23.623Z,8.07
2023-03-30T09:31:12.354Z,7.75
2023-03-30T09:34:04.985Z,9.77
2023-03-30T09:37:03.269Z,7.55
2023-03-30T09:39:32.967Z,6.05
2023-03-30T09:42:03.271Z,8.10
2023-03-30T09:44:51.030Z,4.70
2023-03-30T09:47:23.820Z,5.57
2023-03-30T09:50:01.564Z,6.60
2023-03-30T09:52:29.891Z,7.60
2023-03-30T09:54:57.757Z,7.28
2023-03-30T09:57:32.754Z,5.05
2023-03-30T10:00:01.039Z,4.78
2023-03-30T10:02:31.369Z,6.28
2023-03-30T10:05:01.030Z,5.32
2023-03-30T10:07:36.551Z,3.55
2023-03-30T10:10:31.300Z,8.13
2023-03-30T10:13:04.877Z,3.85
2023-03-30T10:15:32.047Z,5.53
2023-03-30T10:18:18.040Z,7.40
2023-03-30T10:20:51.718Z,5.75
2023-03-30T10:23:19.748Z,4.85
2023-03-30T10:25:50.277Z,5.30
2023-03-30T10:28:27.242Z,4.32
2023-03-30T10:30:57.106Z,5.00
2023-03-30T10:33:24.187Z,4.68
2023-03-30T10:35:53.706Z,7.13
2023-03-30T10:38:20.868Z,4.85
2023-03-30T10:40:47.780Z,6.63
2023-03-30T10:43:16.168Z,10.82
2023-03-30T10:45:49.183Z,4.60
2023-03-30T10:50:49.954Z,3.08
2023-03-30T10:53:26.398Z,7.40
2023-03-30T10:56:26.361Z,7.07
2023-03-30T10:58:59.962Z,6.50
2023-03-30T11:01:42.804Z,5.03
2023-03-30T11:04:43.677Z,8.23
2023-03-30T11:07:30.917Z,5.13
2023-03-30T11:10:00.483Z,6.30
2023-03-30T11:12:30.507Z,4.25
2023-03-30T11:15:03.536Z,5.63
2023-03-30T11:20:35.461Z,4.43
2023-03-30T11:23:04.770Z,2.78
2023-03-30T11:25:53.826Z,4.10
2023-03-30T11:28:45.614Z,4.97
2023-03-30T11:31:19.117Z,4.72
2023-03-30T11:33:48.294Z,5.93
2023-03-30T11:36:39.150Z,4.90
2023-03-30T11:39:18.465Z,3.28
2023-03-30T11:41:58.610Z,5.80
2023-03-30T11:44:25.344Z,4.68
2023-03-30T11:47:05.718Z,6.95
2023-03-30T11:49:38.530Z,7.75
2023-03-30T11:52:06.147Z,2.53
2023-03-30T11:55:05.650Z,5.97
2023-03-30T11:57:41.525Z,6.00
2023-03-30T12:00:49.909Z,3.95
2023-03-30T12:03:19.529Z,4.70
2023-03-30T12:05:48.893Z,4.03
2023-03-30T12:08:30.834Z,4.13
2023-03-30T12:11:12.995Z,3.90
2023-03-30T12:13:50.248Z,5.07
2023-03-30T12:16:39.361Z,5.25
2023-03-30T12:19:15.914Z,6.13
2023-03-30T12:22:01.656Z,7.35
2023-03-30T12:24:30.062Z,3.28
2023-03-30T12:27:05.260Z,5.75
2023-03-30T12:32:30.059Z,4.35
2023-03-30T12:34:59.929Z,4.53
2023-03-30T12:37:36.236Z,4.25
2023-03-30T12:40:33.435Z,3.60
2023-03-30T12:43:16.774Z,3.80
2023-03-30T12:46:02.269Z,2.38
2023-03-30T12:48:51.276Z,5.43
2023-03-30T12:51:39.976Z,6.07
2023-03-30T12:54:31.997Z,7.20
2023-03-30T12:57:29.688Z,3.83
2023-03-30T13:00:07.575Z,6.00
2023-03-30T13:02:52.414Z,7.93
2023-03-30T13:05:27.296Z,8.40
2023-03-30T13:07:54.333Z,7.15
2023-03-30T13:10:30.279Z,5.13
2023-03-30T13:12:58.042Z,4.97
2023-03-30T13:15:42.638Z,4.93
2023-03-30T13:18:09.427Z,3.45
2023-03-30T13:20:37.741Z,4.45
2023-03-30T13:23:13.509Z,4.28
2023-03-30T13:25:49.865Z,5.88
2023-03-30T13:28:31.711Z,4.20
2023-03-30T13:31:02.273Z,2.95
2023-03-30T13:33:29.031Z,3.60
2023-03-30T13:36:15.223Z,2.60
2023-03-30T13:39:04.161Z,4.25
2023-03-30T13:41:31.034Z,5.90
2023-03-30T13:44:12.925Z,5.78
2023-03-30T13:47:08.775Z,4.53
2023-03-30T13:50:17.151Z,6.47
2023-03-30T13:52:46.091Z,3.95
2023-03-30T13:55:33.267Z,4.22
2023-03-30T13:58:05.160Z,4.63
2023-03-30T14:00:49.107Z,5.95
2023-03-30T14:03:43.741Z,9.93
2023-03-30T14:06:13.706Z,3.65
2023-03-30T14:08:45.137Z,3.85
2023-03-30T14:11:19.018Z,5.78
2023-03-30T14:13:47.554Z,4.05
2023-03-30T14:16:22.921Z,3.83
2023-03-30T14:18:50.004Z,2.15
2023-03-30T14:21:19.457Z,4.22
2023-03-30T14:23:52.096Z,2.95
2023-03-30T14:26:25.405Z,3.85
2023-03-30T14:29:10.781Z,3.90
2023-03-30T14:31:42.670Z,5.63
2023-03-30T14:34:30.164Z,4.65
2023-03-30T14:37:02.213Z,3.83
2023-03-30T14:39:28.977Z,4.22
2023-03-30T14:41:56.527Z,3.95
2023-03-30T14:44:23.649Z,4.50
2023-03-30T14:46:51.986Z,2.83
2023-03-30T14:49:20.547Z,3.35
2023-03-30T14:51:52.472Z,3.90
2023-03-30T14:54:22.037Z,2.10
2023-03-30T14:56:57.837Z,6.65
2023-03-30T14:59:25.758Z,3.22
2023-03-30T15:01:52.617Z,4.43
2023-03-30T15:04:19.598Z,3.05
2023-03-30T15:06:47.496Z,1.85
2023-03-30T15:09:20.276Z,0.85
2023-03-30T15:11:51.261Z,3.35
2023-03-30T15:14:21.050Z,0.93
2023-03-30T15:16:50.627Z,1.25
2023-03-30T15:19:31.656Z,1.90
2023-03-30T15:22:03.512Z,1.90
2023-03-30T15:24:34.847Z,2.73
2023-03-30T15:27:04.924Z,1.58
2023-03-30T15:29:31.878Z,4.18
2023-03-30T15:32:19.280Z,3.55
2023-03-30T15:35:01.635Z,3.20
2023-03-30T15:37:28.568Z,6.50
2023-03-30T15:39:55.247Z,5.03
2023-03-30T15:42:42.129Z,6.13
2023-03-30T15:45:12.104Z,4.95
2023-03-30T15:47:38.992Z,5.88
2023-03-30T15:50:10.125Z,3.92
2023-03-30T15:52:38.406Z,3.72
2023-03-30T15:55:18.077Z,2.42
2023-03-30T15:57:47.173Z,2.92
2023-03-30T16:00:18.129Z,3.40
2023-03-30T16:02:57.859Z,2.53
2023-03-30T16:05:27.487Z,1.50
2023-03-30T16:07:54.670Z,3.95
2023-03-30T16:10:27.280Z,2.63
2023-03-30T16:12:55.010Z,2.80
2023-03-30T16:15:23.659Z,2.53
2023-03-30T16:17:50.881Z,3.45
2023-03-30T16:20:20.807Z,3.53
2023-03-30T16:22:47.916Z,3.28
2023-03-30T16:25:16.010Z,2.95
2023-03-30T16:27:43.224Z,2.05
2023-03-30T16:30:27.729Z,2.65
2023-03-30T16:32:54.438Z,1.98
2023-03-30T16:35:21.178Z,2.95
2023-03-30T16:37:48.193Z,4.05
2023-03-30T16:40:27.430Z,2.60
2023-03-30T16:42:54.285Z,1.42
2023-03-30T16:45:21.193Z,2.35
2023-03-30T16:47:48.019Z,2.67
2023-03-30T16:50:36.189Z,2.63
2023-03-30T16:53:02.881Z,3.40
2023-03-30T16:55:29.618Z,1.95
2023-03-30T16:57:56.372Z,3.83
2023-03-30T17:00:26.446Z,5.85
2023-03-30T17:02:53.416Z,2.45
2023-03-30T17:05:20.334Z,3.83
2023-03-30T17:07:48.428Z,3.97
2023-03-30T17:10:26.240Z,3.55
2023-03-30T17:12:53.861Z,5.40
2023-03-30T17:15:22.168Z,2.67
2023-03-30T17:17:49.197Z,4.95
2023-03-30T17:20:25.836Z,3.10
2023-03-30T17:22:52.835Z,4.13
2023-03-30T17:25:23.420Z,4.63
2023-03-30T17:27:51.615Z,3.55
2023-03-30T17:30:21.175Z,5.65
2023-03-30T17:32:57.230Z,3.42
2023-03-30T17:35:26.618Z,3.70
2023-03-30T17:37:55.591Z,4.65
2023-03-30T17:40:29.658Z,4.75
2023-03-30T17:42:58.466Z,3.47
2023-03-30T17:45:33.396Z,3.05
2023-03-30T17:48:00.734Z,2.10
2023-03-30T17:50:32.083Z,3.42
2023-03-30T17:53:14.815Z,1.90
2023-03-30T17:55:47.895Z,5.43
2023-03-30T17:58:36.664Z,2.20
2023-03-30T18:01:08.662Z,3.55
2023-03-30T18:03:38.618Z,3.58
2023-03-30T18:06:06.008Z,4.63
2023-03-30T18:08:32.807Z,4.07
2023-03-30T18:11:00.631Z,4.10
2023-03-30T18:13:32.793Z,3.90
2023-03-30T18:16:00.500Z,8.33
2023-03-30T18:18:29.470Z,3.63
2023-03-30T18:20:57.841Z,2.47
2023-03-30T18:23:25.091Z,3.50
2023-03-30T18:25:52.125Z,5.70
2023-03-30T18:28:24.033Z,8.32
2023-03-30T18:30:51.287Z,9.55
2023-03-30T18:33:18.245Z,5.40
2023-03-30T18:35:46.278Z,3.08
2023-03-30T18:38:14.301Z,5.13
2023-03-30T18:40:45.270Z,1.92
2023-03-30T18:43:12.743Z,3.50
2023-03-30T18:45:40.898Z,5.65
2023-03-30T18:48:08.642Z,6.90
2023-03-30T18:50:37.328Z,5.13
2023-03-30T18:53:05.842Z,3.63
2023-03-30T18:55:33.952Z,4.65
2023-03-30T18:58:02.619Z,2.75
2023-03-30T19:00:31.603Z,4.30
2023-03-30T19:02:59.245Z,4.13
2023-03-30T19:05:27.064Z,4.63
2023-03-30T19:07:54.116Z,6.38
2023-03-30T19:10:23.324Z,5.38
2023-03-30T19:12:53.485Z,6.68
2023-03-30T19:15:31.396Z,6.53
2023-03-30T19:17:58.118Z,5.18
2023-03-30T19:20:26.394Z,7.85
2023-03-30T19:22:53.226Z,2.72
2023-03-30T19:25:21.689Z,5.38
2023-03-30T19:28:01.821Z,8.43
2023-03-30T19:30:32.494Z,3.45
2023-03-30T19:33:01.849Z,7.15
2023-03-30T19:35:28.730Z,7.18
2023-03-30T19:37:55.818Z,6.85
2023-03-30T19:40:22.938Z,7.10
2023-03-30T19:42:49.927Z,6.43
2023-03-30T19:45:19.260Z,5.88
2023-03-30T19:47:46.011Z,9.32
2023-03-30T19:50:15.731Z,4.40
2023-03-30T19:52:42.767Z,6.05
2023-03-30T19:55:10.114Z,4.65
2023-03-30T19:57:37.612Z,5.25
2023-03-30T20:00:12.616Z,7.22
2023-03-30T20:02:40.414Z,5.22
2023-03-30T20:05:10.234Z,4.70
2023-03-30T20:07:37.312Z,6.57
2023-03-30T20:10:05.572Z,4.63
2023-03-30T20:12:32.335Z,4.47
2023-03-30T20:14:59.935Z,3.45
2023-03-30T20:17:30.173Z,4.32
2023-03-30T20:19:58.260Z,5.00
2023-03-30T20:22:25.768Z,3.90
2023-03-30T20:24:52.461Z,5.38
2023-03-30T20:27:19.163Z,5.63
2023-03-30T20:29:46.126Z,9.25
2023-03-30T20:32:16.700Z,5.30
2023-03-30T20:34:46.278Z,5.75
2023-03-30T20:37:15.184Z,5.25
2023-03-30T20:39:43.363Z,4.60
2023-03-30T20:42:14.364Z,5.72
2023-03-30T20:44:41.853Z,6.05
2023-03-30T20:47:12.299Z,3.78
2023-03-30T20:49:41.969Z,4.05
2023-03-30T20:52:13.953Z,7.63
2023-03-30T20:54:44.494Z,4.93
2023-03-30T20:57:13.347Z,6.28
2023-03-30T20:59:43.094Z,6.07
2023-03-30T21:02:11.750Z,5.63
2023-03-30T21:04:39.788Z,6.03
2023-03-30T21:07:06.852Z,8.63
2023-03-30T21:09:34.278Z,7.45
2023-03-30T21:12:01.310Z,6.15
2023-03-30T21:14:28.028Z,4.93
2023-03-30T21:16:54.785Z,4.78
2023-03-30T21:19:21.510Z,7.28
2023-03-30T21:21:48.269Z,2.90
2023-03-30T21:24:16.925Z,3.83
2023-03-30T21:26:43.684Z,6.90
2023-03-30T21:29:10.493Z,3.78
2023-03-30T21:31:37.261Z,6.25
2023-03-30T21:34:04.269Z,2.88
2023-03-30T21:36:31.264Z,3.83
2023-03-30T21:38:59.499Z,5.35
2023-03-30T21:41:26.322Z,4.28
2023-03-30T21:43:53.298Z,5.40
2023-03-30T21:46:21.741Z,5.07
2023-03-30T21:48:52.589Z,4.72
2023-03-30T21:51:25.851Z,4.43
2023-03-30T21:53:53.265Z,2.55
2023-03-30T21:56:22.451Z,3.28
2023-03-30T21:58:49.559Z,7.80
2023-03-30T22:01:16.640Z,4.63
2023-03-30T22:03:45.861Z,5.57
2023-03-30T22:06:13.909Z,6.15
2023-03-30T22:08:40.867Z,4.50
2023-03-30T22:11:19.208Z,5.55
2023-03-30T22:13:48.498Z,6.05
2023-03-30T22:16:22.471Z,6.05
2023-03-30T22:18:50.033Z,5.13
2023-03-30T22:21:20.106Z,3.10
2023-03-30T22:23:47.092Z,4.65
2023-03-30T22:26:14.272Z,4.28
2023-03-30T22:28:41.135Z,3.95
2023-03-30T22:31:08.954Z,6.00
2023-03-30T22:33:35.791Z,5.78
2023-03-30T22:36:03.487Z,4.75
2023-03-30T22:38:30.648Z,4.72
2023-03-30T22:41:05.522Z,4.40
2023-03-30T22:43:33.904Z,3.35
2023-03-30T22:46:00.680Z,9.35
2023-03-30T22:48:27.395Z,5.10
2023-03-30T22:50:54.118Z,5.20
2023-03-30T22:53:20.859Z,7.72
2023-03-30T22:55:48.058Z,5.05
2023-03-30T22:58:15.507Z,6.47
2023-03-30T23:00:42.346Z,5.95
2023-03-30T23:03:09.714Z,3.15
2023-03-30T23:05:37.338Z,5.60
2023-03-30T23:08:04.337Z,2.63
2023-03-30T23:10:33.998Z,4.57
2023-03-30T23:13:00.810Z,5.05
2023-03-30T23:15:29.311Z,3.05
2023-03-30T23:17:56.521Z,4.70
2023-03-30T23:20:23.440Z,5.07
2023-03-30T23:22:50.856Z,4.45
2023-03-30T23:25:17.881Z,3.70
2023-03-30T23:27:44.595Z,4.32
2023-03-30T23:30:11.973Z,4.70
2023-03-30T23:32:38.812Z,4.10
2023-03-30T23:35:06.009Z,6.30
2023-03-30T23:37:32.712Z,8.88
2023-03-30T23:40:04.544Z,7.70
2023-03-30T23:42:31.450Z,4.10
2023-03-30T23:44:58.123Z,3.67
2023-03-30T23:47:24.970Z,6.25
2023-03-30T23:49:51.760Z,3.47
2023-03-30T23:52:18.513Z,3.83
2023-03-30T23:54:45.232Z,3.00
2023-03-30T23:57:12.259Z,6.20
2023-03-30T23:59:39.001Z,7.43
